createdAt,value
2018-08-24T00:00:19.865Z,99162.44
2018-08-24T00:02:48.661Z,99164.92
2018-08-24T00:05:17.373Z,99168.94
2018-08-24T00:07:46.189Z,99170.36
2018-08-24T00:10:14.892Z,99167.80
2018-08-24T00:12:43.573Z,99172.62
2018-08-24T00:15:12.195Z,99172.20
2018-08-24T00:17:45.048Z,99165.03
2018-08-24T00:20:13.751Z,99159.61
2018-08-24T00:22:42.802Z,99152.38
2018-08-24T00:25:11.465Z,99153.23
2018-08-24T00:27:41.328Z,99144.73
2018-08-24T00:30:10.095Z,99144.30
2018-08-24T00:32:38.822Z,99143.96
2018-08-24T00:35:08.372Z,99143.53
2018-08-24T00:37:37.017Z,99148.47
2018-08-24T00:40:05.973Z,99145.94
2018-08-24T00:42:34.880Z,99141.70
2018-08-24T00:45:03.540Z,99141.25
2018-08-24T00:47:33.228Z,99141.44
2018-08-24T00:50:01.933Z,99138.60
2018-08-24T00:52:30.601Z,99143.13
2018-08-24T00:54:59.269Z,99147.32
2018-08-24T00:57:27.989Z,99143.78
2018-08-24T00:59:56.666Z,99148.16
2018-08-24T01:02:25.499Z,99134.38
2018-08-24T01:04:55.317Z,99141.44
2018-08-24T01:07:24.921Z,99135.03
2018-08-24T01:09:53.530Z,99133.68
2018-08-24T01:12:22.205Z,99137.37
2018-08-24T01:14:50.763Z,99138.02
2018-08-24T01:17:25.276Z,99133.79
2018-08-24T01:19:53.966Z,99128.25
2018-08-24T01:22:22.912Z,99134.63
2018-08-24T01:24:51.468Z,99131.78
2018-08-24T01:27:20.460Z,99140.50
2018-08-24T01:29:49.187Z,99137.19
2018-08-24T01:32:17.834Z,99139.87
2018-08-24T01:34:46.521Z,99137.14
2018-08-24T01:37:15.161Z,99138.75
2018-08-24T01:39:44.260Z,99139.59
2018-08-24T01:42:12.817Z,99143.57
2018-08-24T01:44:41.413Z,99136.73
2018-08-24T01:47:10.208Z,99141.17
2018-08-24T01:49:39.182Z,99134.49
2018-08-24T01:52:07.824Z,99137.81
2018-08-24T01:54:36.536Z,99138.52
2018-08-24T01:57:05.355Z,99138.05
2018-08-24T01:59:33.931Z,99134.23
2018-08-24T02:02:02.636Z,99132.98
2018-08-24T02:04:31.328Z,99133.03
2018-08-24T02:06:59.948Z,99133.06
2018-08-24T02:09:28.600Z,99129.64
2018-08-24T02:11:57.226Z,99127.53
2018-08-24T02:14:31.129Z,99130.97
2018-08-24T02:16:59.862Z,99131.17
2018-08-24T02:19:34.018Z,99130.53
2018-08-24T02:22:07.837Z,99125.70
2018-08-24T02:24:36.481Z,99131.59
2018-08-24T02:27:05.173Z,99129.45
2018-08-24T02:29:34.182Z,99134.38
2018-08-24T02:32:02.853Z,99126.72
2018-08-24T02:34:31.718Z,99126.23
2018-08-24T02:37:00.457Z,99120.27
2018-08-24T02:39:30.233Z,99132.55
2018-08-24T02:42:00.065Z,99134.50
2018-08-24T02:44:28.684Z,99138.31
2018-08-24T02:46:57.644Z,99121.09
2018-08-24T02:49:26.408Z,99126.40
2018-08-24T02:51:55.172Z,99126.39
2018-08-24T02:54:24.048Z,99122.33
2018-08-24T02:56:53.887Z,99120.55
2018-08-24T02:59:22.701Z,99120.52
2018-08-24T03:01:51.621Z,99120.38
2018-08-24T03:04:20.347Z,99123.14
2018-08-24T03:06:49.153Z,99126.76
2018-08-24T03:09:19.557Z,99121.88
2018-08-24T03:11:48.312Z,99110.77
2018-08-24T03:14:17.062Z,99113.67
2018-08-24T03:16:51.041Z,99109.70
2018-08-24T03:19:19.685Z,99107.69
2018-08-24T03:21:48.863Z,99104.92
2018-08-24T03:24:17.695Z,99107.87
2018-08-24T03:26:46.334Z,99113.16
2018-08-24T03:29:15.182Z,99111.41
2018-08-24T03:31:44.522Z,99118.39
2018-08-24T03:34:13.485Z,99123.16
2018-08-24T03:36:42.218Z,99120.45
2018-08-24T03:39:11.123Z,99122.52
2018-08-24T03:41:40.049Z,99124.45
2018-08-24T03:44:08.958Z,99109.72
2018-08-24T03:46:37.605Z,99102.66
2018-08-24T03:49:06.409Z,99103.44
2018-08-24T03:51:35.049Z,99105.48
2018-08-24T03:54:07.929Z,99097.59
2018-08-24T03:56:36.824Z,99094.70
2018-08-24T03:59:05.791Z,99092.51
2018-08-24T04:01:34.457Z,99095.69
2018-08-24T04:04:03.860Z,99096.67
2018-08-24T04:06:33.001Z,99094.27
2018-08-24T04:09:01.657Z,99088.53
2018-08-24T04:11:30.392Z,99087.85
2018-08-24T04:13:59.283Z,99076.21
2018-08-24T04:16:28.072Z,99073.53
2018-08-24T04:18:56.844Z,99075.40
2018-08-24T04:24:46.689Z,99083.20
2018-08-24T04:27:15.377Z,99082.20
2018-08-24T04:29:44.072Z,99078.83
2018-08-24T04:32:12.848Z,99073.39
2018-08-24T04:34:41.497Z,99082.04
2018-08-24T04:37:10.104Z,99088.39
2018-08-24T04:39:39.024Z,99093.85
2018-08-24T04:42:07.636Z,99084.08
2018-08-24T04:44:36.310Z,99080.69
2018-08-24T04:47:04.973Z,99074.44
2018-08-24T04:49:33.852Z,99072.94
2018-08-24T04:52:02.517Z,99074.84
2018-08-24T04:54:31.248Z,99063.26
2018-08-24T04:56:59.973Z,99061.50
2018-08-24T04:59:28.647Z,99058.14
2018-08-24T05:01:57.414Z,99055.42
2018-08-24T05:04:26.299Z,99048.46
2018-08-24T05:06:54.956Z,99042.70
2018-08-24T05:09:23.653Z,99046.62
2018-08-24T05:11:55.349Z,99037.28
2018-08-24T05:14:24.028Z,99038.97
2018-08-24T05:16:52.585Z,99022.88
2018-08-24T05:19:21.348Z,99014.71
2018-08-24T05:21:50.265Z,99013.42
2018-08-24T05:24:18.937Z,99015.30
2018-08-24T05:26:47.536Z,99011.02
2018-08-24T05:29:16.222Z,99016.84
2018-08-24T05:31:44.978Z,99016.16
2018-08-24T05:34:14.441Z,99019.34
2018-08-24T05:36:43.640Z,99011.15
2018-08-24T05:39:12.333Z,99015.91
2018-08-24T05:41:41.017Z,99019.25
2018-08-24T05:44:09.682Z,99018.25
2018-08-24T05:46:38.538Z,99019.66
2018-08-24T05:49:07.169Z,99026.72
2018-08-24T05:51:35.781Z,99022.05
2018-08-24T05:54:04.456Z,99024.64
2018-08-24T05:56:33.120Z,99027.56
2018-08-24T05:59:02.022Z,99027.63
2018-08-24T06:01:30.730Z,99027.01
2018-08-24T06:03:59.326Z,99014.42
2018-08-24T06:06:28.018Z,99023.03
2018-08-24T06:09:02.105Z,99020.22
2018-08-24T06:11:30.946Z,99024.09
2018-08-24T06:14:01.302Z,99029.98
2018-08-24T06:16:30.023Z,99039.07
2018-08-24T06:18:58.708Z,99042.95
2018-08-24T06:21:27.422Z,99043.30
2018-08-24T06:23:56.193Z,99047.18
2018-08-24T06:26:24.825Z,99041.58
2018-08-24T06:28:53.388Z,99046.13
2018-08-24T06:31:22.085Z,99045.75
2018-08-24T06:33:50.710Z,99050.46
2018-08-24T06:39:40.133Z,99060.30
2018-08-24T06:42:08.768Z,99062.13
2018-08-24T06:44:37.588Z,99062.04
2018-08-24T06:47:06.560Z,99065.84
2018-08-24T06:49:35.216Z,99059.03
2018-08-24T06:52:03.888Z,99061.80
2018-08-24T06:54:32.492Z,99054.80
2018-08-24T06:57:01.288Z,99055.68
2018-08-24T06:59:29.976Z,99053.38
2018-08-24T07:01:59.580Z,99057.70
2018-08-24T07:04:28.289Z,99052.83
2018-08-24T07:06:56.974Z,99052.98
2018-08-24T07:09:25.670Z,99052.88
2018-08-24T07:11:54.322Z,99049.81
2018-08-24T07:14:23.087Z,99052.33
2018-08-24T07:17:01.991Z,99058.06
2018-08-24T07:19:31.580Z,99058.81
2018-08-24T07:22:00.712Z,99070.94
2018-08-24T07:24:30.003Z,99065.11
2018-08-24T07:26:58.689Z,99074.03
2018-08-24T07:29:28.876Z,99076.08
2018-08-24T07:31:57.596Z,99082.23
2018-08-24T07:34:26.279Z,99074.44
2018-08-24T07:36:55.105Z,99072.50
2018-08-24T07:39:23.897Z,99067.13
2018-08-24T07:41:52.678Z,99076.77
2018-08-24T07:44:21.299Z,99072.59
2018-08-24T07:46:50.012Z,99073.53
2018-08-24T07:49:19.397Z,99067.07
2018-08-24T07:51:48.185Z,99063.89
2018-08-24T07:54:17.009Z,99062.59
2018-08-24T07:56:45.626Z,99067.66
2018-08-24T07:59:14.497Z,99067.36
2018-08-24T08:01:43.740Z,99078.58
2018-08-24T08:04:12.438Z,99080.77
2018-08-24T08:06:41.357Z,99071.75
2018-08-24T08:09:10.067Z,99075.11
2018-08-24T08:11:40.938Z,99079.19
2018-08-24T08:14:10.339Z,99085.09
2018-08-24T08:16:39.005Z,99069.06
2018-08-24T08:19:07.717Z,99073.69
2018-08-24T08:21:36.384Z,99053.18
2018-08-24T08:24:05.133Z,99053.30
2018-08-24T08:26:34.947Z,99068.23
2018-08-24T08:29:03.593Z,99072.66
2018-08-24T08:31:32.333Z,99080.66
2018-08-24T08:34:01.610Z,99096.83
2018-08-24T08:36:30.306Z,99114.94
2018-08-24T08:39:00.087Z,99116.27
2018-08-24T08:41:28.768Z,99097.57
2018-08-24T08:44:04.689Z,99084.67
2018-08-24T08:46:33.702Z,99077.77
2018-08-24T08:49:03.360Z,99080.34
2018-08-24T08:51:32.285Z,99079.84
2018-08-24T08:54:01.426Z,99077.66
2018-08-24T08:56:30.245Z,99082.76
2018-08-24T08:58:59.117Z,99074.27
2018-08-24T09:01:27.843Z,99079.39
2018-08-24T09:03:56.556Z,99084.08
2018-08-24T09:06:25.776Z,99090.88
2018-08-24T09:08:54.383Z,99087.41
2018-08-24T09:11:23.124Z,99086.28
2018-08-24T09:13:52.340Z,99106.71
2018-08-24T09:16:20.934Z,99106.31
2018-08-24T09:18:55.029Z,99101.95
2018-08-24T09:21:28.909Z,99106.36
2018-08-24T09:24:02.972Z,99101.59
2018-08-24T09:26:36.944Z,99093.44
2018-08-24T09:29:10.865Z,99099.78
2018-08-24T09:31:41.435Z,99097.00
2018-08-24T09:34:10.164Z,99101.28
2018-08-24T09:36:38.847Z,99098.64
2018-08-24T09:39:09.004Z,99107.66
2018-08-24T09:41:37.874Z,99103.35
2018-08-24T09:44:06.754Z,99100.21
2018-08-24T09:46:40.757Z,99105.27
2018-08-24T09:49:14.900Z,99097.81
2018-08-24T09:51:43.525Z,99098.03
2018-08-24T09:54:12.197Z,99101.37
2018-08-24T09:56:41.412Z,99101.08
2018-08-24T09:59:11.212Z,99096.94
2018-08-24T10:01:45.116Z,99103.72
2018-08-24T10:04:19.000Z,99093.37
2018-08-24T10:06:53.416Z,99099.55
2018-08-24T10:09:22.042Z,99098.97
2018-08-24T10:11:50.699Z,99109.89
2018-08-24T10:14:19.392Z,99112.60
2018-08-24T10:16:48.001Z,99109.05
2018-08-24T10:19:16.760Z,99111.11
2018-08-24T10:21:45.425Z,99099.88
2018-08-24T10:24:14.188Z,99112.15
2018-08-24T10:26:42.849Z,99115.19
2018-08-24T10:29:11.611Z,99110.21
2018-08-24T10:31:41.394Z,99110.27
2018-08-24T10:34:10.061Z,99109.63
2018-08-24T10:36:38.785Z,99105.60
2018-08-24T10:39:09.375Z,99100.49
2018-08-24T10:41:38.405Z,99108.73
2018-08-24T10:44:07.204Z,99106.22
2018-08-24T10:51:02.060Z,99091.42
2018-08-24T10:53:30.945Z,99080.53
2018-08-24T10:55:59.864Z,99081.86
2018-08-24T10:58:28.614Z,99078.22
2018-08-24T11:00:57.308Z,99067.66
2018-08-24T11:03:25.996Z,99078.94
2018-08-24T11:05:54.961Z,99076.20
2018-08-24T11:08:24.565Z,99088.98
2018-08-24T11:10:53.249Z,99076.00
2018-08-24T11:13:22.123Z,99073.30
2018-08-24T11:15:51.802Z,99076.58
2018-08-24T11:18:20.470Z,99079.42
2018-08-24T11:20:49.405Z,99078.63
2018-08-24T11:23:18.540Z,99082.38
2018-08-24T11:25:47.306Z,99084.06
2018-08-24T11:28:15.983Z,99076.06
2018-08-24T11:30:44.573Z,99078.37
2018-08-24T11:33:13.331Z,99079.42
2018-08-24T11:35:42.105Z,99083.72
2018-08-24T11:38:11.849Z,99106.64
2018-08-24T11:40:41.110Z,99078.48
2018-08-24T11:43:09.833Z,99107.64
2018-08-24T11:45:38.508Z,99079.50
2018-08-24T11:48:07.192Z,99081.87
2018-08-24T11:50:35.885Z,99076.72
2018-08-24T11:53:04.690Z,99071.80
2018-08-24T11:55:33.742Z,99085.89
2018-08-24T11:58:02.537Z,99065.59
2018-08-24T12:00:32.680Z,99066.59
2018-08-24T12:03:02.539Z,99064.09
2018-08-24T12:05:31.654Z,99064.92
2018-08-24T12:08:00.680Z,99077.16
2018-08-24T12:10:29.478Z,99081.66
2018-08-24T12:12:58.647Z,99065.44
2018-08-24T12:15:27.408Z,99069.34
2018-08-24T12:17:56.677Z,99065.19
2018-08-24T12:20:25.448Z,99072.27
2018-08-24T12:22:54.705Z,99064.69
2018-08-24T12:25:23.418Z,99074.26
2018-08-24T12:27:52.120Z,99081.38
2018-08-24T12:30:20.814Z,99091.09
2018-08-24T12:36:13.433Z,99081.64
2018-08-24T12:38:42.415Z,99075.88
2018-08-24T12:41:11.820Z,99067.66
2018-08-24T12:43:40.560Z,99070.41
2018-08-24T12:46:09.570Z,99059.14
2018-08-24T12:48:38.517Z,99047.20
2018-08-24T12:51:07.104Z,99043.39
2018-08-24T12:53:36.657Z,99042.81
2018-08-24T12:56:08.849Z,99037.31
2018-08-24T12:58:37.570Z,99039.66
2018-08-24T13:01:06.273Z,99034.81
2018-08-24T13:03:35.048Z,99033.78
2018-08-24T13:06:03.985Z,99028.73
2018-08-24T13:08:32.884Z,99033.36
2018-08-24T13:11:01.521Z,99037.16
2018-08-24T13:13:30.232Z,99030.53
2018-08-24T13:15:59.133Z,99031.66
2018-08-24T13:18:27.890Z,99042.27
2018-08-24T13:20:56.851Z,99039.95
2018-08-24T13:23:25.679Z,99044.20
2018-08-24T13:25:54.826Z,99033.56
2018-08-24T13:28:23.517Z,99035.05
2018-08-24T13:30:52.414Z,99028.02
2018-08-24T13:33:21.256Z,99037.46
2018-08-24T13:35:49.961Z,99025.33
2018-08-24T13:38:19.689Z,99032.52
2018-08-24T13:40:48.499Z,99027.08
2018-08-24T13:43:17.296Z,99024.27
2018-08-24T13:45:45.957Z,99019.72
2018-08-24T13:48:14.669Z,99016.09
2018-08-24T13:50:43.957Z,99010.98
2018-08-24T13:53:12.694Z,99014.11
2018-08-24T13:55:41.486Z,99014.91
2018-08-24T13:58:10.290Z,99005.38
2018-08-24T14:00:38.973Z,99010.55
2018-08-24T14:03:07.600Z,99017.41
2018-08-24T14:05:36.334Z,99011.59
2018-08-24T14:08:04.970Z,99015.20
2018-08-24T14:10:33.918Z,99021.38
2018-08-24T14:13:02.639Z,99009.04
2018-08-24T14:15:31.199Z,99017.52
2018-08-24T14:17:59.801Z,99020.58
2018-08-24T14:20:28.561Z,99020.83
2018-08-24T14:22:57.170Z,99011.95
2018-08-24T14:25:25.927Z,99009.47
2018-08-24T14:27:54.648Z,99005.59
2018-08-24T14:30:23.359Z,99006.75
2018-08-24T14:32:52.144Z,99012.39
2018-08-24T14:35:20.789Z,99018.37
2018-08-24T14:37:50.221Z,99021.41
2018-08-24T14:40:19.135Z,99020.36
2018-08-24T14:42:47.790Z,99017.56
2018-08-24T14:45:16.487Z,99016.61
2018-08-24T14:47:46.180Z,99016.07
2018-08-24T14:50:14.791Z,99001.72
2018-08-24T14:52:43.525Z,99003.87
2018-08-24T14:55:12.298Z,99008.76
2018-08-24T14:57:41.316Z,99005.08
2018-08-24T15:00:09.947Z,99013.80
2018-08-24T15:02:38.795Z,99014.52
2018-08-24T15:05:09.437Z,99014.34
2018-08-24T15:07:38.188Z,99008.88
2018-08-24T15:10:07.272Z,99018.87
2018-08-24T15:12:35.826Z,99017.91
2018-08-24T15:15:04.681Z,99022.36
2018-08-24T15:17:33.561Z,99026.19
2018-08-24T15:20:03.695Z,99032.75
2018-08-24T15:22:32.820Z,99036.34
2018-08-24T15:25:01.572Z,99041.48
2018-08-24T15:27:30.710Z,99042.61
2018-08-24T15:29:59.461Z,99040.55
2018-08-24T15:32:28.142Z,99041.37
2018-08-24T15:34:57.178Z,99042.09
2018-08-24T15:37:26.075Z,99043.34
2018-08-24T15:39:54.927Z,99043.69
2018-08-24T15:42:23.650Z,99038.05
2018-08-24T15:44:52.282Z,99046.63
2018-08-24T15:47:21.233Z,99055.22
2018-08-24T15:49:49.975Z,99053.61
2018-08-24T15:52:18.761Z,99047.78
2018-08-24T15:54:47.622Z,99042.67
2018-08-24T15:57:16.198Z,99050.22
2018-08-24T15:59:44.785Z,99049.97
2018-08-24T16:02:13.456Z,99048.03
2018-08-24T16:04:42.161Z,99055.05
2018-08-24T16:07:10.845Z,99057.25
2018-08-24T16:09:39.558Z,99066.13
2018-08-24T16:12:08.674Z,99081.88
2018-08-24T16:14:37.286Z,99095.85
2018-08-24T16:17:06.512Z,99103.17
2018-08-24T16:19:35.214Z,99113.38
2018-08-24T16:25:25.365Z,99119.22
2018-08-24T16:27:54.201Z,99126.03
2018-08-24T16:30:22.928Z,99132.61
2018-08-24T16:32:51.579Z,99129.20
2018-08-24T16:35:20.506Z,99133.19
2018-08-24T16:37:50.267Z,99124.92
2018-08-24T16:40:19.258Z,99134.28
2018-08-24T16:42:48.697Z,99140.15
2018-08-24T16:45:17.347Z,99133.41
2018-08-24T16:47:47.419Z,99132.86
2018-08-24T16:50:16.323Z,99130.63
2018-08-24T16:52:44.980Z,99122.34
2018-08-24T16:55:14.919Z,99118.61
2018-08-24T16:57:43.621Z,99104.63
2018-08-24T17:00:12.361Z,99099.47
2018-08-24T17:02:41.159Z,99092.60
2018-08-24T17:05:09.861Z,99090.61
2018-08-24T17:07:38.580Z,99089.30
2018-08-24T17:10:08.640Z,99086.66
2018-08-24T17:12:37.543Z,99081.04
2018-08-24T17:15:06.651Z,99072.69
2018-08-24T17:17:35.461Z,99077.21
2018-08-24T17:20:05.237Z,99074.67
2018-08-24T17:22:34.075Z,99084.72
2018-08-24T17:25:03.438Z,99080.14
2018-08-24T17:27:32.100Z,99078.30
2018-08-24T17:30:00.755Z,99078.87
2018-08-24T17:32:29.445Z,99081.25
2018-08-24T17:34:58.182Z,99090.66
2018-08-24T17:37:27.077Z,99101.10
2018-08-24T17:39:55.778Z,99095.23
2018-08-24T17:42:24.648Z,99098.91
2018-08-24T17:44:53.388Z,99103.98
2018-08-24T17:47:23.153Z,99098.61
2018-08-24T17:49:52.837Z,99103.34
2018-08-24T17:52:21.446Z,99107.66
2018-08-24T17:54:50.129Z,99116.72
2018-08-24T17:57:19.380Z,99115.97
2018-08-24T17:59:48.073Z,99126.40
2018-08-24T18:02:16.969Z,99124.03
2018-08-24T18:04:45.828Z,99122.69
2018-08-24T18:07:14.587Z,99126.42
2018-08-24T18:09:43.925Z,99117.72
2018-08-24T18:12:13.621Z,99126.91
2018-08-24T18:14:42.299Z,99129.23
2018-08-24T18:17:10.934Z,99130.03
2018-08-24T18:19:39.592Z,99138.23
2018-08-24T18:22:08.550Z,99141.06
2018-08-24T18:24:38.240Z,99142.85
2018-08-24T18:27:07.042Z,99149.69
2018-08-24T18:29:35.752Z,99152.95
2018-08-24T18:32:04.441Z,99154.53
2018-08-24T18:34:33.075Z,99159.67
2018-08-24T18:37:01.687Z,99163.34
2018-08-24T18:39:31.349Z,99170.80
2018-08-24T18:42:00.035Z,99177.73
2018-08-24T18:44:28.653Z,99183.98
2018-08-24T18:46:57.973Z,99180.95
2018-08-24T18:49:26.726Z,99184.23
2018-08-24T18:51:57.400Z,99193.84
2018-08-24T18:54:26.125Z,99188.58
2018-08-24T18:56:54.876Z,99194.00
2018-08-24T18:59:23.829Z,99196.97
2018-08-24T19:01:53.405Z,99182.85
2018-08-24T19:04:22.173Z,99187.82
2018-08-24T19:06:50.904Z,99190.29
2018-08-24T19:09:19.625Z,99198.11
2018-08-24T19:11:53.473Z,99189.86
2018-08-24T19:14:22.290Z,99198.28
2018-08-24T19:16:51.010Z,99196.33
2018-08-24T19:19:25.639Z,99199.91
2018-08-24T19:21:58.686Z,99197.78
2018-08-24T19:24:27.441Z,99196.93
2018-08-24T19:26:56.147Z,99194.39
2018-08-24T19:29:31.129Z,99190.38
2018-08-24T19:31:59.842Z,99187.50
2018-08-24T19:34:28.596Z,99192.78
2018-08-24T19:36:57.316Z,99189.89
2018-08-24T19:39:25.987Z,99199.75
2018-08-24T19:41:59.983Z,99198.69
2018-08-24T19:44:28.713Z,99204.05
2018-08-24T19:46:57.553Z,99191.36
2018-08-24T19:49:26.527Z,99190.02
2018-08-24T19:51:55.312Z,99201.23
2018-08-24T19:54:24.571Z,99198.06
2018-08-24T19:56:53.273Z,99192.70
2018-08-24T19:59:22.021Z,99195.73
2018-08-24T20:01:50.665Z,99195.11
2018-08-24T20:04:19.382Z,99193.14
2018-08-24T20:06:53.272Z,99192.30
2018-08-24T20:09:27.091Z,99195.82
2018-08-24T20:11:55.865Z,99195.47
2018-08-24T20:14:29.912Z,99196.80
2018-08-24T20:17:04.651Z,99195.82
2018-08-24T20:19:33.515Z,99191.45
2018-08-24T20:22:02.178Z,99192.16
2018-08-24T20:24:31.159Z,99195.19
2018-08-24T20:26:59.708Z,99192.86
2018-08-24T20:29:28.460Z,99189.56
2018-08-24T20:31:57.172Z,99201.17
2018-08-24T20:34:25.789Z,99196.73
2018-08-24T20:36:54.539Z,99201.19
2018-08-24T20:39:23.226Z,99198.20
2018-08-24T20:41:52.164Z,99200.61
2018-08-24T20:44:21.646Z,99201.70
2018-08-24T20:46:50.407Z,99195.36
2018-08-24T20:49:19.563Z,99195.36
2018-08-24T20:51:48.406Z,99192.43
2018-08-24T20:54:17.078Z,99201.45
2018-08-24T21:00:50.105Z,99202.66
2018-08-24T21:03:18.848Z,99208.16
2018-08-24T21:05:47.642Z,99199.90
2018-08-24T21:08:16.225Z,99199.05
2018-08-24T21:10:44.953Z,99200.56
2018-08-24T21:13:13.561Z,99201.91
2018-08-24T21:15:42.271Z,99197.17
2018-08-24T21:18:11.131Z,99202.17
2018-08-24T21:20:39.841Z,99198.30
2018-08-24T21:23:08.752Z,99199.77
2018-08-24T21:25:37.477Z,99195.40
2018-08-24T21:28:07.258Z,99200.05
2018-08-24T21:30:36.982Z,99201.39
2018-08-24T21:33:06.105Z,99201.39
2018-08-24T21:35:35.878Z,99193.84
2018-08-24T21:38:04.664Z,99194.34
2018-08-24T21:40:33.281Z,99191.30
2018-08-24T21:43:01.960Z,99197.29
2018-08-24T21:45:31.521Z,99190.23
2018-08-24T21:48:01.004Z,99188.71
2018-08-24T21:50:30.359Z,99191.52
2018-08-24T21:52:59.103Z,99198.36
2018-08-24T21:55:27.878Z,99194.70
2018-08-24T21:57:57.472Z,99191.17
2018-08-24T22:00:26.740Z,99194.34
2018-08-24T22:02:55.446Z,99202.66
2018-08-24T22:05:24.117Z,99198.33
2018-08-24T22:07:53.017Z,99206.45
2018-08-24T22:10:21.772Z,99203.83
2018-08-24T22:12:50.576Z,99210.34
2018-08-24T22:15:20.974Z,99205.20
2018-08-24T22:17:50.922Z,99194.45
2018-08-24T22:20:21.466Z,99192.03
2018-08-24T22:22:52.497Z,99186.14
2018-08-24T22:25:21.284Z,99179.88
2018-08-24T22:27:50.028Z,99188.96
2018-08-24T22:30:18.843Z,99182.93
2018-08-24T22:32:48.794Z,99183.84
2018-08-24T22:35:17.618Z,99187.76
2018-08-24T22:37:46.308Z,99188.16
2018-08-24T22:40:14.922Z,99189.75
2018-08-24T22:42:44.287Z,99182.08
2018-08-24T22:45:14.280Z,99190.23
2018-08-24T22:47:43.040Z,99189.62
2018-08-24T22:50:11.724Z,99186.09
2018-08-24T22:52:40.919Z,99184.05
2018-08-24T22:55:10.156Z,99183.55
2018-08-24T22:57:38.831Z,99182.83
2018-08-24T23:00:07.698Z,99183.81
2018-08-24T23:02:36.415Z,99192.48
2018-08-24T23:05:05.184Z,99190.80
2018-08-24T23:07:33.860Z,99195.42
2018-08-24T23:10:02.472Z,99206.25
2018-08-24T23:12:31.191Z,99204.55
2018-08-24T23:14:59.921Z,99202.73
2018-08-24T23:17:28.584Z,99192.03
2018-08-24T23:19:57.399Z,99201.64
2018-08-24T23:22:26.121Z,99204.77
2018-08-24T23:24:54.745Z,99207.23
2018-08-24T23:27:23.647Z,99208.45
2018-08-24T23:29:52.525Z,99206.33
2018-08-24T23:32:21.145Z,99215.95
2018-08-24T23:34:49.982Z,99216.95
2018-08-24T23:37:18.708Z,99220.84
2018-08-24T23:39:47.712Z,99227.05
2018-08-24T23:42:16.448Z,99233.25
2018-08-24T23:44:45.179Z,99233.53
2018-08-24T23:47:13.867Z,99212.89
2018-08-24T23:49:42.537Z,99211.58
2018-08-24T23:52:11.444Z,99205.78
2018-08-24T23:54:40.129Z,99228.73
2018-08-24T23:57:08.722Z,99242.34
2018-08-24T23:59:37.581Z,99244.89
